台中市, 台灣

2014年11月29日 01時45分 (GMT +0800)
ITAIWAND2 | Change Station
CLOSE
Current Station
個人氣象站
Location: Dali, Taichung / Taiwan
海拔: 200 ft
附近的氣象站

海拔 200 ft 24.11 °N, 120.68 °E | Updated 48 seconds ago

Mostly Cloudy
多雲
75.8 °F
感覺像 77 °F
0.0
風 變化 風 來自 西南偏南
Gusts 1.0 英里每小時

今日
高 -- | 低 -- °F
--% 降水機率
昨天
高 -- | 低 -- °F
Precip. -- 英寸
6:21 AM 5:08 PM
眉月, 42% visible
氣壓 29.95 英寸
能見度 1.5 英里
多雲 多雲時晴 600 ft
多雲 2000 ft
多雲 5000 ft
高溫指數 77 °F
露點 68 °F
濕度 77%
降雨量 0.00 英寸
積雪深度 不適用。
紫外線 0 / 12
花粉 不適用。
空氣質素 不適用。
Flu Activity 不適用。
METAR RCMQ 281700Z 32004KT 2400 BR SCT006 BKN020 BKN050 22/20 Q1014 NOSIG RMK A2996

More Conditions Fewer Conditions

氣壓 29.95 英寸
能見度 1.5 英里
多雲 多雲時晴 600 ft
多雲 2000 ft
多雲 5000 ft
高溫指數 77 °F
露點 68 °F
濕度 77%
降雨量 0.00 英寸
積雪深度 不適用。
紫外線 0 / 12
花粉 不適用。
空氣質素 不適用。
Flu Activity 不適用。
METAR RCMQ 281700Z 32004KT 2400 BR SCT006 BKN020 BKN050 22/20 Q1014 NOSIG RMK A2996

More Conditions Fewer Conditions

10-Day Weather Forecast

Almanac

天文

Nov. 29, 2014 昇起 降落
實際時間
民用曙暮光
航海曙暮光
天文學微明
月亮
可見光的長度
白晝時間
Tomorrow will be .
, % of the Moon is Illuminated

今天之最

國家高溫 國家低溫

Community

WunderPhotos

Upload Photos

1,774,245 照片已上傳!

WunderBlogs® & News

Nearby

空氣質素

  空氣質素 空氣質素指數 污染物
Not available.

積雪量

Station 深度 海拔

地震活動

城市 距離 時間和日期
顯示的最小幅度是2.5。

沿海水溫

地點 溫度

附近的氣象站